| time (UTC) | temp F | wind direction | speed knots | gust knots | rain 1hr in | rain 24hr in | rain mn in | humidity % | barometer mb |
| 20260503054530 | 40 | 222 | 0.0 | 0.0 | 0.00 | 0.00 | 0.00 | 62 | 981.3 |
| 20260503053020 | 41 | 222 | 0.0 | 0.0 | 0.00 | 0.00 | 0.00 | 61 | 981.4 |
| 20260503051519 | 41 | 222 | 0.0 | 0.0 | 0.00 | 0.00 | 0.00 | 61 | 981.6 |
| 20260503050018 | 41 | 222 | 0.0 | 1.7 | 0.00 | 0.00 | 0.00 | 61 | 981.6 |
| 20260503044515 | 42 | 222 | 0.0 | 0.9 | 0.00 | 0.00 | 0.00 | 60 | 981.6 |
| 20260503043012 | 42 | 222 | 0.0 | 0.0 | 0.00 | 0.00 | 0.00 | 59 | 981.8 |
| 20260503041511 | 43 | 222 | 0.0 | 0.0 | 0.00 | 0.00 | 0.00 | 57 | 982.0 |
| 20260503040008 | 43 | 222 | 0.0 | 0.0 | 0.00 | 0.00 | 0.00 | 54 | 982.1 |
| 20260503034505 | 44 | 222 | 0.0 | 0.0 | 0.00 | 0.00 | 0.00 | 53 | 982.3 |
| 20260503033003 | 45 | 222 | 0.0 | 0.0 | 0.00 | 0.00 | 0.00 | 51 | 982.4 |
| 20260503031502 | 46 | 222 | 0.0 | 0.0 | 0.00 | 0.00 | 0.00 | 48 | 982.5 |
| 20260503030002 | 46 | 222 | 0.0 | 0.0 | 0.00 | 0.00 | 0.00 | 46 | 982.7 |
| 20260503024600 | 48 | 222 | 0.0 | 0.0 | 0.00 | 0.00 | 0.00 | 45 | 982.8 |
| 20260503023058 | 49 | 222 | 0.0 | 0.0 | 0.00 | 0.00 | 0.00 | 43 | 982.8 |
| 20260503021554 | 50 | 222 | 0.0 | 0.0 | 0.00 | 0.00 | 0.00 | 40 | 982.7 |
| 20260503020056 | 51 | 222 | 0.0 | 0.9 | 0.00 | 0.00 | 0.00 | 38 | 982.6 |
| 20260503014605 | 53 | 222 | 0.0 | 0.9 | 0.00 | 0.00 | 0.00 | 34 | 982.7 |
| 20260503013048 | 54 | 222 | 0.0 | 0.9 | 0.00 | 0.00 | 0.00 | 32 | 982.5 |
| 20260503011548 | 55 | 222 | 0.0 | 0.0 | 0.00 | 0.00 | 0.00 | 30 | 982.7 |
| 20260503010044 | 57 | 222 | 0.0 | 1.7 | 0.00 | 0.00 | 0.00 | 29 | 982.6 |
| 20260503004543 | 58 | 222 | 0.0 | 2.6 | 0.00 | 0.00 | 0.00 | 25 | 982.6 |
| 20260503003033 | 58 | 211 | 0.0 | 3.5 | 0.00 | 0.00 | 0.00 | 23 | 982.7 |
| 20260503001511 | 59 | 241 | 0.9 | 4.3 | 0.00 | 0.00 | 0.00 | 22 | 982.9 |
| 20260503000045 | 60 | 290 | 2.6 | 7.8 | 0.00 | 0.00 | 0.00 | 21 | 983.0 |
| 20260502234544 | 60 | 288 | 1.7 | 5.2 | 0.00 | 0.00 | 0.00 | 23 | 983.1 |
| 20260502233018 | 61 | 279 | 2.6 | 11.3 | 0.00 | 0.00 | 0.00 | 19 | 983.3 |
| 20260502231507 | 61 | 250 | 4.3 | 17.4 | 0.00 | 0.00 | 0.00 | 19 | 983.3 |
| 20260502230000 | 62 | 255 | 1.7 | 8.7 | 0.00 | 0.00 | 0.00 | 19 | 983.5 |
| 20260502224606 | 61 | 254 | 5.2 | 9.6 | 0.00 | 0.00 | 0.00 | 19 | 983.9 |
| 20260502223059 | 61 | 280 | 3.5 | 13.0 | 0.00 | 0.00 | 0.00 | 18 | 983.8 |
| 20260502221600 | 62 | 260 | 5.2 | 10.4 | 0.00 | 0.00 | 0.00 | 19 | 983.9 |
| 20260502220033 | 62 | 301 | 2.6 | 9.6 | 0.00 | 0.00 | 0.00 | 19 | 984.2 |
| 20260502214524 | 62 | 301 | 2.6 | 10.4 | 0.00 | 0.00 | 0.00 | 22 | 984.1 |
| 20260502213023 | 61 | 304 | 4.3 | 11.3 | 0.00 | 0.00 | 0.00 | 19 | 984.2 |
| 20260502211520 | 60 | 254 | 7.8 | 13.9 | 0.00 | 0.00 | 0.00 | 19 | 984.6 |
| 20260502210017 | 61 | 5 | 6.1 | 11.3 | 0.00 | 0.00 | 0.00 | 21 | 984.8 |
| 20260502204515 | 60 | 282 | 5.2 | 13.9 | 0.00 | 0.00 | 0.00 | 18 | 984.9 |
| 20260502203008 | 60 | 274 | 4.3 | 13.9 | 0.00 | 0.00 | 0.00 | 22 | 985.2 |
| 20260502201508 | 60 | 274 | 3.5 | 11.3 | 0.00 | 0.00 | 0.00 | 23 | 985.3 |
| 20260502200005 | 59 | 316 | 2.6 | 9.6 | 0.00 | 0.00 | 0.00 | 20 | 985.4 |
| 20260502194505 | 59 | 300 | 4.3 | 12.2 | 0.00 | 0.00 | 0.00 | 20 | 985.9 |
| 20260502193059 | 60 | 302 | 3.5 | 9.6 | 0.00 | 0.00 | 0.00 | 20 | 986.0 |
| 20260502191556 | 60 | 209 | 2.6 | 8.7 | 0.00 | 0.00 | 0.00 | 22 | 986.1 |
| 20260502190056 | 59 | 261 | 4.3 | 12.2 | 0.00 | 0.00 | 0.00 | 25 | 986.4 |
| 20260502184603 | 58 | 281 | 4.3 | 10.4 | 0.00 | 0.00 | 0.00 | 24 | 986.6 |
| 20260502183056 | 58 | 343 | 3.5 | 9.6 | 0.00 | 0.00 | 0.00 | 24 | 986.8 |
| 20260502181553 | 56 | 258 | 1.7 | 7.0 | 0.00 | 0.00 | 0.00 | 25 | 986.9 |
| 20260502163033 | 56 | 252 | 3.5 | 9.6 | 0.00 | 0.00 | 0.00 | 29 | 987.8 |
| 20260502161525 | 56 | 275 | 3.5 | 10.4 | 0.00 | 0.00 | 0.00 | 28 | 987.9 |
| 20260502151512 | 53 | 345 | 1.7 | 9.6 | 0.00 | 0.00 | 0.00 | 30 | 988.5 |
| 20260502123103 | 32 | 111 | 0.0 | 0.0 | 0.00 | 0.00 | 0.00 | 72 | 989.3 |
| 20260502121550 | 31 | 107 | 0.0 | 0.0 | 0.00 | 0.00 | 0.00 | 72 | 989.3 |
| 20260502114545 | 30 | 92 | 0.0 | 0.0 | 0.00 | 0.00 | 0.00 | 70 | 989.1 |
| 20260502113044 | 29 | 92 | 0.0 | 0.0 | 0.00 | 0.00 | 0.00 | 69 | 989.0 |
| 20260502111544 | 29 | 102 | 0.0 | 0.0 | 0.00 | 0.00 | 0.00 | 69 | 989.0 |
| 20260502110040 | 29 | 102 | 0.0 | 0.0 | 0.00 | 0.00 | 0.00 | 68 | 989.1 |
| 20260502104539 | 29 | 102 | 0.0 | 0.0 | 0.00 | 0.00 | 0.00 | 68 | 989.2 |
| 20260502103035 | 29 | 102 | 0.0 | 0.0 | 0.00 | 0.00 | 0.00 | 68 | 989.1 |
| 20260502101544 | 29 | 102 | 0.0 | 0.0 | 0.00 | 0.00 | 0.00 | 68 | 989.0 |
| 20260502091530 | 29 | 102 | 0.0 | 0.0 | 0.00 | 0.00 | 0.00 | 67 | 989.0 |
| 20260502071518 | 29 | 102 | 0.0 | 0.0 | 0.00 | 0.00 | 0.00 | 64 | 988.9 |